KAGS/AGS METAR and TAF weather

Enter ICAO airport designator
Station Type Date Time Source
KAGS METAR 2022/01/18 06:53 UTC NOAA

KAGS 180653Z AUTO 30005KT 10SM CLR 02/M03 A3006 RMK AO2 SLP180 T00171033


Station Type Date Time Source
KAGS Decoded METAR 2022/01/18 06:53 UTC NOAA

AUGUSTA BUSH FIELD, GA, United States (KAGS) 33-22N 081-58W 44M
Jan 18, 2022 - 01:53 AM EST / 2022.01.18 0653 UTC
Wind: from the WNW (300 degrees) at 6 MPH (5 KT):0
Visibility: 10 mile(s):0
Sky conditions: clear
Temperature: 35.1 F (1.7 C)
Dew Point: 26.1 F (-3.3 C)
Relative Humidity: 69%
Pressure (altimeter): 30.06 in. Hg (1017 hPa)
ob: KAGS 180653Z AUTO 30005KT 10SM CLR 02/M03 A3006 RMK AO2 SLP180 T00171033
cycle: 7

Station Type Date Time Source
KAGS TAF 2022/01/18 06:30 UTC NOAA

TAF KAGS 180528Z 1806/1906 28009KT P6SM SKC
FM180900 VRB04KT P6SM FEW250

Example: see airport list